Time;durP1;ratioP1;P1;durP2;ratioP2;P2;SDS_P1;SDS_P2;PMS_P1;PMS_P2;Temp;Humidity;BMP_temperature;BMP_pressure;BME280_temperature;BME280_humidity;BME280_pressure;Samples;Min_cycle;Max_cycle;Signal;HPM_P1;HPM_P2
2022/06/08 00:02:58;;;;;;;1.40;1.30;;;14.20;99.90;15.40;96421.00;;;;5032085;28;20243;-68
2022/06/08 00:05:47;;;;;;;5.97;1.47;;;14.20;99.90;15.50;96420.00;;;;5031469;28;20212;-68
2022/06/08 00:08:35;;;;;;;0.87;0.87;;;14.20;99.90;15.50;96410.00;;;;5029876;28;20225;-68
2022/06/08 00:11:25;;;;;;;2.77;2.23;;;14.20;99.90;15.20;96400.00;;;;5029966;28;20590;-68
2022/06/08 00:14:15;;;;;;;1.87;1.10;;;14.20;99.90;15.30;96400.00;;;;5032592;28;20307;-67
2022/06/08 00:17:05;;;;;;;1.67;1.40;;;14.20;99.90;15.40;96400.00;;;;5030358;28;20240;-67
2022/06/08 00:19:54;;;;;;;6.13;4.00;;;14.20;99.90;15.40;96395.00;;;;5028482;28;20205;-67
2022/06/08 00:22:43;;;;;;;2.17;1.27;;;14.20;99.90;15.60;96389.00;;;;5031001;28;20212;-67
2022/06/08 00:25:32;;;;;;;1.50;1.40;;;14.20;99.90;15.60;96382.00;;;;5029253;28;20194;-67
2022/06/08 00:28:21;;;;;;;1.53;1.43;;;14.30;99.90;15.50;96381.00;;;;5022059;28;20236;-67
2022/06/08 00:31:12;;;;;;;1.77;1.13;;;14.30;99.90;15.30;96388.00;;;;5029876;28;20236;-67
2022/06/08 00:34:00;;;;;;;5.37;4.87;;;14.20;99.90;15.50;96380.00;;;;5031125;28;20213;-67
2022/06/08 00:36:49;;;;;;;1.23;1.07;;;14.20;99.90;15.30;96385.00;;;;5029781;28;20229;-67
2022/06/08 00:39:38;;;;;;;1.30;1.20;;;14.20;99.90;15.40;96380.00;;;;5031575;28;20205;-67
2022/06/08 00:42:28;;;;;;;1.20;1.10;;;14.20;99.90;15.50;96372.00;;;;5030025;28;20198;-67
2022/06/08 00:45:20;;;;;;;1.53;1.30;;;14.20;99.90;15.50;96375.00;;;;5029835;28;20681;-67
2022/06/08 00:48:10;;;;;;;1.70;1.60;;;14.20;99.90;15.60;96367.00;;;;5028792;28;20244;-67
2022/06/08 00:50:59;;;;;;;1.50;1.40;;;14.20;99.90;15.50;96371.00;;;;5031550;28;20393;-67
2022/06/08 00:53:56;;;;;;;0.80;0.80;;;14.30;99.90;15.50;96368.00;;;;5029625;28;20217;-67
2022/06/08 00:56:52;;;;;;;1.57;1.43;;;14.30;99.90;15.50;96371.00;;;;5029747;28;20240;-67
2022/06/08 00:59:47;;;;;;;2.40;1.00;;;14.30;99.90;15.50;96363.00;;;;5030601;28;20672;-67
2022/06/08 01:02:36;;;;;;;1.40;1.30;;;14.30;99.90;15.50;96371.00;;;;5030189;28;20586;-67
2022/06/08 01:05:31;;;;;;;3.40;1.70;;;14.30;99.90;15.60;96372.00;;;;5031230;28;20201;-67
2022/06/08 01:08:30;;;;;;;3.23;1.43;;;14.30;99.90;15.50;96374.00;;;;5028904;28;20240;-67
2022/06/08 01:11:26;;;;;;;1.43;1.30;;;14.30;99.90;15.60;96375.00;;;;5026100;28;20205;-67
2022/06/08 01:14:18;;;;;;;1.50;1.40;;;14.30;99.90;15.60;96373.00;;;;5031056;28;20213;-67
2022/06/08 01:17:13;;;;;;;1.47;1.30;;;14.30;99.90;15.40;96372.00;;;;5028710;28;20221;-67
2022/06/08 01:20:02;;;;;;;1.40;1.30;;;14.30;99.90;15.50;96363.00;;;;5025803;28;20205;-67
2022/06/08 01:22:53;;;;;;;1.30;1.20;;;14.20;99.90;15.40;96369.00;;;;5030556;28;20200;-67
2022/06/08 01:26:05;;;;;;;3.00;1.17;;;14.30;99.90;15.40;96368.00;;;;5029034;28;20205;-67
2022/06/08 01:29:03;;;;;;;2.57;1.57;;;14.30;99.90;15.50;96365.00;;;;5021547;28;20203;-66
2022/06/08 01:32:04;;;;;;;1.33;1.23;;;14.30;99.90;15.50;96360.00;;;;5028519;28;20208;-67
2022/06/08 01:35:12;;;;;;;4.30;1.37;;;14.30;99.90;15.40;96357.00;;;;5019228;28;20215;-67
2022/06/08 01:38:11;;;;;;;2.33;1.33;;;14.30;99.90;15.50;96359.00;;;;5028794;28;20221;-67
2022/06/08 01:41:54;;;;;;;2.80;1.50;;;14.30;99.90;15.30;96366.00;;;;5029878;28;20201;-67
2022/06/08 01:48:27;;;;;;;1.53;1.43;;;14.20;99.90;15.60;96360.00;;;;5028842;28;20213;-67
2022/06/08 01:51:27;;;;;;;1.97;1.30;;;14.30;99.90;15.50;96355.00;;;;5030225;28;20200;-67
2022/06/08 01:54:30;;;;;;;4.30;1.37;;;14.30;99.90;15.40;96360.00;;;;5029208;28;20236;-68
2022/06/08 01:57:39;;;;;;;4.73;1.77;;;14.20;99.90;15.50;96349.00;;;;5028937;28;20232;-68
2022/06/08 02:00:35;;;;;;;6.33;1.87;;;14.20;99.90;15.60;96349.00;;;;5029679;28;20202;-68
2022/06/08 02:03:30;;;;;;;3.73;1.37;;;14.20;99.90;15.30;96347.00;;;;5028526;28;20700;-68
2022/06/08 02:06:25;;;;;;;3.37;1.40;;;14.20;99.90;15.50;96351.00;;;;5029744;28;20691;-68
2022/06/08 02:09:23;;;;;;;2.60;1.57;;;14.20;99.90;15.40;96349.00;;;;5028372;28;20235;-68
2022/06/08 02:12:13;;;;;;;4.17;1.70;;;14.20;99.90;15.40;96358.00;;;;5024042;28;20197;-68
2022/06/08 02:15:09;;;;;;;1.43;1.30;;;14.20;99.90;15.40;96350.00;;;;5028787;28;20213;-68
2022/06/08 02:18:02;;;;;;;2.67;1.63;;;14.20;99.90;15.40;96362.00;;;;5022894;28;20217;-68
2022/06/08 02:20:57;;;;;;;4.90;1.73;;;14.20;99.90;15.10;96355.00;;;;5022818;28;20216;-67
2022/06/08 02:23:51;;;;;;;2.60;1.30;;;14.10;99.90;15.20;96355.00;;;;5027996;28;20695;-67
2022/06/08 02:26:45;;;;;;;1.83;1.63;;;14.10;99.90;15.00;96360.00;;;;5026161;28;20206;-67
2022/06/08 02:29:41;;;;;;;3.07;1.50;;;14.00;99.90;14.80;96353.00;;;;5030039;28;20212;-67
2022/06/08 02:35:47;;;;;;;2.27;1.47;;;14.00;99.90;14.90;96356.00;;;;5028241;28;20835;-67
2022/06/08 02:38:42;;;;;;;1.30;1.20;;;13.90;99.90;14.80;96376.00;;;;5028068;28;20224;-67
2022/06/08 02:41:33;;;;;;;2.30;1.37;;;13.90;99.90;14.80;96366.00;;;;5026962;28;20201;-68
2022/06/08 02:44:28;;;;;;;2.10;1.90;;;13.80;99.90;14.60;96371.00;;;;5026102;28;20669;-67
2022/06/08 02:47:29;;;;;;;2.87;1.40;;;13.70;99.90;14.60;96378.00;;;;5027732;28;20228;-65
2022/06/08 02:50:21;;;;;;;1.60;1.50;;;13.70;99.90;14.60;96374.00;;;;5028839;28;20215;-68
2022/06/08 02:53:48;;;;;;;2.07;1.93;;;13.70;99.90;14.70;96382.00;;;;5028963;28;20229;-68
2022/06/08 02:56:47;;;;;;;2.20;1.90;;;13.70;99.90;14.60;96379.00;;;;5028484;28;20672;-68
2022/06/08 02:59:50;;;;;;;5.63;2.00;;;13.70;99.90;14.60;96380.00;;;;5027620;28;20193;-67
2022/06/08 03:02:45;;;;;;;1.57;1.47;;;13.70;99.90;14.30;96376.00;;;;5027664;28;20582;-68
2022/06/08 03:05:41;;;;;;;2.63;2.17;;;13.70;99.90;14.40;96381.00;;;;5028724;28;20206;-68
2022/06/08 03:08:35;;;;;;;2.20;2.00;;;13.60;99.90;14.40;96376.00;;;;5026595;28;20232;-68
2022/06/08 03:11:26;;;;;;;2.97;2.03;;;13.60;99.90;14.30;96395.00;;;;5028562;28;20217;-69
2022/06/08 03:14:17;;;;;;;4.30;2.60;;;13.60;99.90;14.40;96393.00;;;;5027701;28;20232;-68
2022/06/08 03:17:11;;;;;;;3.40;1.70;;;13.60;99.90;14.40;96394.00;;;;5027137;28;20630;-68
2022/06/08 03:20:01;;;;;;;2.57;2.10;;;13.50;99.90;14.30;96396.00;;;;5024675;28;20566;-69
2022/06/08 03:22:50;;;;;;;4.90;2.37;;;13.50;99.90;14.40;96389.00;;;;5027954;28;20657;-68
2022/06/08 03:25:39;;;;;;;2.30;1.83;;;13.50;99.90;14.70;96399.00;;;;5027814;28;20198;-68
2022/06/08 03:28:28;;;;;;;1.87;1.70;;;13.60;99.90;14.70;96396.00;;;;5019378;28;20233;-68
2022/06/08 03:31:17;;;;;;;1.97;1.87;;;13.60;99.90;14.70;96400.00;;;;5026978;28;20201;-68
2022/06/08 03:34:07;;;;;;;2.37;2.00;;;13.60;99.90;14.80;96397.00;;;;5024960;28;20232;-68
2022/06/08 03:36:56;;;;;;;2.80;2.20;;;13.60;99.90;14.70;96385.00;;;;5026509;28;20229;-68
2022/06/08 03:39:45;;;;;;;3.53;1.90;;;13.60;99.90;14.90;96402.00;;;;5028823;28;20221;-68
2022/06/08 03:42:34;;;;;;;6.90;2.27;;;13.60;99.90;14.80;96389.00;;;;5027657;28;20202;-68
2022/06/08 03:45:22;;;;;;;2.60;2.10;;;13.70;99.90;14.60;96387.00;;;;5028541;28;20555;-67
2022/06/08 03:48:12;;;;;;;2.30;1.77;;;13.70;99.90;14.70;96393.00;;;;5028769;28;20241;-68
2022/06/08 03:51:03;;;;;;;5.00;2.00;;;13.70;99.90;14.60;96392.00;;;;5029046;28;20218;-69
2022/06/08 03:53:57;;;;;;;2.13;1.93;;;13.60;99.90;14.70;96389.00;;;;5030426;28;20236;-68
2022/06/08 03:56:50;;;;;;;2.87;1.97;;;13.60;99.90;14.90;96394.00;;;;5030968;28;20233;-68
2022/06/08 03:59:41;;;;;;;2.37;1.60;;;13.70;99.90;14.80;96383.00;;;;5032195;28;20562;-68
2022/06/08 04:02:30;;;;;;;1.70;1.60;;;13.70;99.90;14.90;96385.00;;;;5030977;28;20205;-67
2022/06/08 04:05:19;;;;;;;3.13;2.07;;;13.70;99.90;14.80;96386.00;;;;5031192;28;20206;-67
2022/06/08 04:08:10;;;;;;;2.87;2.20;;;13.70;99.90;14.80;96382.00;;;;5028634;28;20260;-68
2022/06/08 04:10:59;;;;;;;2.00;1.70;;;13.70;99.90;15.00;96376.00;;;;5025551;28;20202;-68
2022/06/08 04:13:48;;;;;;;2.07;1.87;;;13.70;99.90;15.00;96376.00;;;;5028852;28;20240;-68
2022/06/08 04:16:37;;;;;;;2.00;1.80;;;13.70;99.90;15.00;96375.00;;;;5029636;28;20202;-68
2022/06/08 04:19:26;;;;;;;1.97;1.80;;;13.80;99.90;15.00;96383.00;;;;5028380;28;20217;-69
2022/06/08 04:22:15;;;;;;;1.93;1.73;;;13.80;99.90;15.20;96358.00;;;;5030774;28;20212;-69
2022/06/08 04:25:07;;;;;;;3.70;1.83;;;13.80;99.90;15.30;96369.00;;;;5025044;28;20212;-69
2022/06/08 04:27:56;;;;;;;3.20;2.17;;;13.90;99.90;15.30;96359.00;;;;5029195;28;20225;-68
2022/06/08 04:30:45;;;;;;;2.20;1.30;;;13.90;99.90;15.20;96354.00;;;;5030240;28;20197;-69
2022/06/08 04:33:34;;;;;;;3.73;1.87;;;14.00;99.90;14.90;96348.00;;;;5025388;28;20274;-68
2022/06/08 04:36:23;;;;;;;1.70;1.60;;;13.90;99.90;15.40;96359.00;;;;5024379;28;20575;-68
2022/06/08 04:39:15;;;;;;;3.60;2.47;;;14.00;99.90;15.50;96349.00;;;;5028521;28;20198;-68
2022/06/08 04:42:07;;;;;;;6.50;2.17;;;14.00;99.90;15.60;96350.00;;;;5027983;28;20209;-68
2022/06/08 04:44:56;;;;;;;2.23;2.00;;;14.10;99.90;15.70;96351.00;;;;5030086;28;20212;-67
2022/06/08 04:47:45;;;;;;;3.27;2.03;;;14.20;99.90;15.60;96339.00;;;;5029417;28;20229;-67
2022/06/08 04:50:34;;;;;;;2.83;2.47;;;14.30;99.90;15.70;96350.00;;;;5028920;28;20205;-68
2022/06/08 04:53:23;;;;;;;5.13;2.60;;;14.30;99.90;15.90;96348.00;;;;5030216;28;20202;-68
2022/06/08 04:56:12;;;;;;;3.43;3.10;;;14.40;99.90;16.00;96344.00;;;;5029350;28;20205;-67
2022/06/08 04:59:02;;;;;;;6.43;3.10;;;14.40;99.90;16.00;96341.00;;;;5029750;28;20213;-67
2022/06/08 05:01:51;;;;;;;3.43;2.10;;;14.50;99.90;16.10;96337.00;;;;5029886;28;20707;-67
2022/06/08 05:04:40;;;;;;;5.17;2.50;;;14.60;99.90;16.10;96335.00;;;;5029371;28;20684;-67
2022/06/08 05:07:29;;;;;;;2.03;1.90;;;14.60;99.90;16.30;96344.00;;;;5049828;23;20237;-67
2022/06/08 05:10:19;;;;;;;2.77;2.53;;;14.70;99.90;16.30;96330.00;;;;5028637;28;20277;-67
2022/06/08 05:13:09;;;;;;;2.77;2.33;;;14.80;99.90;16.30;96330.00;;;;5030560;28;20703;-67
2022/06/08 05:16:00;;;;;;;7.63;2.30;;;14.80;99.90;16.40;96324.00;;;;5029936;28;20221;-67
2022/06/08 05:18:48;;;;;;;3.17;1.60;;;14.90;99.90;16.50;96336.00;;;;5018788;28;20256;-67
2022/06/08 05:21:37;;;;;;;5.40;1.80;;;15.00;99.90;16.70;96336.00;;;;5031046;28;20201;-67
2022/06/08 05:24:27;;;;;;;4.60;1.93;;;15.10;99.90;16.90;96324.00;;;;5029540;28;20606;-67
2022/06/08 05:27:17;;;;;;;7.00;1.97;;;15.20;99.90;17.00;96317.00;;;;5028146;28;20367;-67
2022/06/08 05:30:09;;;;;;;1.70;1.60;;;15.30;99.90;17.20;96329.00;;;;5025804;28;20209;-66
2022/06/08 05:33:00;;;;;;;3.83;2.20;;;15.40;99.90;17.30;96318.00;;;;5027562;28;20208;-67
2022/06/08 05:35:49;;;;;;;1.90;1.77;;;15.50;99.90;17.50;96327.00;;;;5026255;28;20217;-68
2022/06/08 05:38:38;;;;;;;3.87;2.00;;;15.70;99.90;17.60;96326.00;;;;5029258;28;20222;-67
2022/06/08 05:41:27;;;;;;;2.27;1.40;;;15.80;99.90;17.70;96325.00;;;;5023240;28;20204;-66
2022/06/08 05:44:19;;;;;;;3.80;2.40;;;15.90;99.90;17.90;96333.00;;;;5027442;28;20267;-68
2022/06/08 05:47:08;;;;;;;3.50;1.70;;;16.10;99.90;18.00;96336.00;;;;5025754;28;20197;-67
2022/06/08 05:49:58;;;;;;;1.50;1.40;;;16.20;99.90;17.60;96326.00;;;;5024433;28;20216;-68
2022/06/08 05:52:48;;;;;;;1.40;1.30;;;16.30;99.90;17.90;96336.00;;;;5029516;28;20193;-67
2022/06/08 05:55:37;;;;;;;1.50;1.40;;;16.30;99.90;18.20;96333.00;;;;5023210;28;20240;-67
2022/06/08 05:58:25;;;;;;;1.27;1.10;;;16.40;99.90;18.30;96341.00;;;;5023343;28;20255;-67
2022/06/08 06:01:14;;;;;;;2.60;1.50;;;16.50;99.90;18.30;96339.00;;;;5024669;28;20605;-68
2022/06/08 06:04:07;;;;;;;1.63;1.53;;;16.60;99.90;18.20;96339.00;;;;5028232;28;20197;-67
2022/06/08 06:06:57;;;;;;;3.20;1.30;;;16.60;99.90;18.30;96344.00;;;;5023467;28;20561;-67
2022/06/08 06:09:46;;;;;;;3.63;1.20;;;16.60;99.90;18.30;96336.00;;;;5022456;28;20193;-67
2022/06/08 06:12:35;;;;;;;3.20;1.33;;;16.60;99.90;18.20;96335.00;;;;5025031;28;20434;-67
2022/06/08 06:15:26;;;;;;;4.70;1.30;;;16.60;99.90;18.10;96340.00;;;;5027675;28;20224;-67
2022/06/08 06:18:16;;;;;;;1.33;1.23;;;16.60;99.90;18.20;96335.00;;;;5023600;28;20225;-68
2022/06/08 06:21:06;;;;;;;1.97;1.27;;;16.60;99.90;18.00;96328.00;;;;5024543;28;20221;-66
2022/06/08 06:23:59;;;;;;;4.60;1.80;;;16.60;99.90;18.20;96330.00;;;;5024509;28;20205;-67
2022/06/08 06:26:48;;;;;;;3.60;1.87;;;16.60;99.90;18.40;96335.00;;;;5025988;28;20216;-67
2022/06/08 06:29:37;;;;;;;1.17;1.07;;;16.70;99.90;17.90;96334.00;;;;5026911;28;20271;-67
2022/06/08 06:32:29;;;;;;;2.70;1.33;;;16.60;99.90;18.00;96334.00;;;;5023187;28;20233;-67
2022/06/08 06:35:25;;;;;;;1.60;1.50;;;16.60;99.90;18.30;96338.00;;;;5024319;28;20239;-67
2022/06/08 06:38:14;;;;;;;7.60;1.40;;;16.60;99.90;18.50;96338.00;;;;5025261;28;20608;-67
2022/06/08 06:41:04;;;;;;;1.30;1.20;;;16.70;99.90;18.70;96331.00;;;;5024421;28;20205;-67
2022/06/08 06:43:53;;;;;;;1.23;1.10;;;16.90;99.90;18.60;96332.00;;;;5025329;28;20552;-67
2022/06/08 06:46:42;;;;;;;1.37;1.27;;;16.90;99.90;18.80;96340.00;;;;5027978;28;20216;-67
2022/06/08 06:49:31;;;;;;;1.63;1.10;;;17.00;99.90;18.90;96338.00;;;;5027598;28;20194;-67
2022/06/08 06:52:20;;;;;;;1.23;0.83;;;17.10;99.90;18.90;96334.00;;;;5024883;28;20579;-66
2022/06/08 06:55:18;;;;;;;3.03;1.20;;;17.20;99.90;18.90;96328.00;;;;5016710;28;20221;-67
2022/06/08 06:58:08;;;;;;;0.67;0.67;;;17.20;99.90;19.00;96331.00;;;;5024299;28;20271;-67
2022/06/08 07:00:57;;;;;;;1.23;1.10;;;17.30;99.90;19.10;96331.00;;;;5025594;28;20551;-67
2022/06/08 07:03:46;;;;;;;1.57;1.33;;;17.40;99.90;19.10;96338.00;;;;5025692;28;20197;-68
2022/06/08 07:06:35;;;;;;;0.80;0.80;;;17.40;99.90;19.10;96341.00;;;;5021835;28;20194;-66
2022/06/08 07:09:24;;;;;;;2.67;1.33;;;17.40;99.90;19.20;96340.00;;;;5025824;28;20236;-67
2022/06/08 07:12:14;;;;;;;1.13;1.03;;;17.40;99.90;19.10;96344.00;;;;5019304;28;20200;-67
2022/06/08 07:15:06;;;;;;;1.70;1.10;;;17.50;99.90;19.30;96340.00;;;;5026516;28;20208;-67
2022/06/08 07:17:59;;;;;;;3.63;1.30;;;17.50;99.90;19.30;96335.00;;;;5019908;28;20255;-67
2022/06/08 07:20:48;;;;;;;1.20;1.10;;;17.60;99.90;19.40;96343.00;;;;5023218;28;20559;-67
2022/06/08 07:23:36;;;;;;;1.40;1.30;;;17.70;99.90;19.40;96347.00;;;;5022567;28;20200;-67
2022/06/08 07:26:27;;;;;;;3.90;1.00;;;17.70;99.90;19.40;96357.00;;;;5025641;28;20548;-67
2022/06/08 07:29:16;;;;;;;1.30;1.20;;;17.80;99.90;19.50;96347.00;;;;5032722;28;20220;-67
2022/06/08 07:32:08;;;;;;;3.83;1.30;;;17.80;99.90;19.50;96350.00;;;;5031804;28;20205;-67
2022/06/08 07:34:56;;;;;;;3.13;1.10;;;17.80;99.90;19.30;96346.00;;;;5026820;28;20193;-68
2022/06/08 07:37:45;;;;;;;2.20;0.90;;;17.80;99.90;19.30;96347.00;;;;5028727;28;20217;-67
2022/06/08 07:40:34;;;;;;;1.50;1.40;;;17.80;99.90;19.30;96355.00;;;;5028845;28;20204;-68
2022/06/08 07:43:23;;;;;;;1.20;1.10;;;17.80;99.90;19.30;96342.00;;;;5031104;28;20809;-67
2022/06/08 07:46:12;;;;;;;1.60;1.17;;;17.80;99.90;19.00;96349.00;;;;5025506;28;20216;-66
2022/06/08 07:52:12;;;;;;;2.33;2.13;;;17.70;99.90;19.00;96348.00;;;;5028898;28;20208;-67
2022/06/08 07:55:00;;;;;;;8.40;2.40;;;17.70;99.90;19.10;96345.00;;;;5027708;28;20204;-67
2022/06/08 07:57:50;;;;;;;1.80;1.70;;;17.70;99.90;19.10;96349.00;;;;5032693;28;20221;-67
2022/06/08 08:00:43;;;;;;;2.67;2.27;;;17.70;99.90;19.60;96341.00;;;;5031783;28;20205;-68
2022/06/08 08:03:32;;;;;;;2.70;2.33;;;17.80;99.90;19.70;96340.00;;;;5032041;28;20639;-67
2022/06/08 08:06:22;;;;;;;4.07;2.43;;;17.90;99.90;19.50;96333.00;;;;5027153;28;20213;-67
2022/06/08 08:09:17;;;;;;;2.17;1.80;;;18.00;99.90;19.70;96330.00;;;;5027560;28;20229;-67
2022/06/08 08:12:07;;;;;;;3.30;1.43;;;18.20;99.90;19.60;96327.00;;;;5027472;28;20204;-68
2022/06/08 08:14:56;;;;;;;1.27;1.17;;;18.20;99.90;19.70;96330.00;;;;5032650;28;20685;-65
2022/06/08 08:17:45;;;;;;;2.37;1.23;;;18.30;99.90;19.60;96331.00;;;;5029175;28;20217;-67
2022/06/08 08:20:35;;;;;;;1.50;1.40;;;18.30;99.90;19.70;96321.00;;;;5031164;28;20205;-68
2022/06/08 08:23:25;;;;;;;1.93;1.00;;;18.40;99.90;20.10;96331.00;;;;5028134;28;20204;-67
2022/06/08 08:26:14;;;;;;;4.40;1.50;;;18.50;99.90;20.20;96318.00;;;;5028521;28;20198;-66
2022/06/08 08:29:05;;;;;;;3.03;1.00;;;18.70;99.90;20.60;96319.00;;;;5031119;28;20641;-66
2022/06/08 08:31:54;;;;;;;1.00;1.00;;;18.80;99.90;21.20;96328.00;;;;5024789;28;20194;-67
2022/06/08 08:34:42;;;;;;;1.23;1.10;;;19.00;99.90;21.60;96313.00;;;;5018955;28;20212;-64
2022/06/08 08:37:31;;;;;;;1.30;1.20;;;19.30;99.90;22.20;96316.00;;;;5022859;28;20225;-65
2022/06/08 08:40:38;;;;;;;2.27;1.20;;;19.60;99.90;21.60;96305.00;;;;5027667;28;20205;-66
2022/06/08 08:43:32;;;;;;;1.73;1.20;;;19.90;99.90;22.50;96314.00;;;;5026616;28;20201;-65
2022/06/08 08:46:34;;;;;;;4.20;1.30;;;20.10;99.90;22.50;96304.00;;;;5025841;28;20689;-66
2022/06/08 08:49:26;;;;;;;1.00;1.00;;;20.40;99.90;22.70;96301.00;;;;5025526;28;20236;-65
2022/06/08 08:52:28;;;;;;;1.00;1.00;;;20.60;99.90;23.10;96299.00;;;;5025023;28;20437;-66
2022/06/08 08:55:28;;;;;;;1.30;0.90;;;20.80;99.90;23.50;96297.00;;;;5026805;28;20201;-66
2022/06/08 08:58:19;;;;;;;2.73;0.90;;;21.10;99.90;22.80;96299.00;;;;5024890;28;20221;-66
2022/06/08 09:01:16;;;;;;;1.10;1.00;;;21.30;99.90;22.70;96294.00;;;;5025293;28;20193;-66
2022/06/08 09:04:15;;;;;;;4.00;1.07;;;21.30;99.90;23.30;96301.00;;;;5025971;28;20204;-65
2022/06/08 09:07:14;;;;;;;1.00;1.00;;;21.40;99.90;22.30;96296.00;;;;5026895;28;20198;-66
2022/06/08 09:10:04;;;;;;;1.67;1.13;;;21.40;99.90;23.10;96288.00;;;;5026666;28;20205;-66
2022/06/08 09:12:55;;;;;;;4.40;1.10;;;21.30;99.90;23.20;96299.00;;;;5026311;28;20216;-65
2022/06/08 09:15:49;;;;;;;1.20;1.00;;;21.40;99.90;22.70;96291.00;;;;5025521;28;20213;-65
2022/06/08 09:18:40;;;;;;;1.10;0.90;;;21.40;99.90;22.60;96296.00;;;;5029565;28;20225;-65
2022/06/08 09:21:33;;;;;;;1.60;0.87;;;21.30;99.90;22.70;96299.00;;;;5030007;28;20205;-65
2022/06/08 09:24:31;;;;;;;1.97;1.27;;;21.30;99.90;23.40;96301.00;;;;5029870;28;20205;-66
2022/06/08 09:27:26;;;;;;;2.60;1.10;;;21.40;99.90;23.60;96304.00;;;;5027405;28;20263;-66
2022/06/08 09:30:20;;;;;;;0.93;0.90;;;21.50;99.90;23.70;96287.00;;;;5025710;28;20200;-66
2022/06/08 09:33:18;;;;;;;1.03;0.70;;;21.60;99.90;23.70;96301.00;;;;5030310;28;20202;-66
2022/06/08 09:36:25;;;;;;;1.13;1.03;;;21.70;99.90;22.70;96292.00;;;;5030930;28;20194;-65
2022/06/08 09:39:17;;;;;;;0.80;0.80;;;21.70;99.90;22.40;96285.00;;;;5019766;28;20221;-66
2022/06/08 09:42:26;;;;;;;1.27;0.90;;;21.60;99.90;22.20;96287.00;;;;5024384;28;20558;-66
2022/06/08 09:45:44;;;;;;;2.30;0.90;;;21.30;99.90;21.80;96286.00;;;;5030328;28;20198;-66
2022/06/08 09:52:13;;;;;;;1.03;0.93;;;20.80;99.90;21.80;96279.00;;;;5024906;28;20211;-67
2022/06/08 09:55:20;;;;;;;4.73;1.00;;;20.70;99.90;22.50;96274.00;;;;5028437;28;20200;-66
2022/06/08 09:58:34;;;;;;;0.70;0.70;;;20.80;99.90;22.80;96272.00;;;;5022184;28;20388;-67
2022/06/08 10:01:34;;;;;;;2.27;1.17;;;21.00;99.90;22.10;96263.00;;;;5023397;28;20227;-65
2022/06/08 10:04:38;;;;;;;1.67;1.20;;;21.10;99.90;22.50;96264.00;;;;5022554;28;20251;-65
2022/06/08 10:07:46;;;;;;;0.80;0.80;;;21.30;99.90;23.10;96238.00;;;;5025546;28;20237;-66
2022/06/08 10:10:42;;;;;;;2.57;1.10;;;21.50;99.90;23.50;96234.00;;;;5026786;28;20586;-64
2022/06/08 10:13:38;;;;;;;3.13;0.97;;;21.80;99.90;23.80;96240.00;;;;5026995;28;20206;-66
2022/06/08 10:16:33;;;;;;;1.00;0.90;;;22.10;99.90;25.30;96241.00;;;;5028665;28;20585;-66
2022/06/08 10:19:29;;;;;;;1.90;0.97;;;22.60;99.90;26.50;96234.00;;;;5025350;28;20225;-66
2022/06/08 10:22:20;;;;;;;0.80;0.80;;;23.20;99.90;27.30;96240.00;;;;5021695;28;20586;-65
2022/06/08 10:25:18;;;;;;;1.20;1.10;;;23.90;99.90;28.10;96247.00;;;;5021268;28;20197;-66
2022/06/08 10:28:18;;;;;;;1.17;0.90;;;24.70;99.90;27.80;96217.00;;;;5026541;28;20217;-66
2022/06/08 10:31:15;;;;;;;2.63;0.80;;;25.20;99.90;28.50;96212.00;;;;5025060;28;20193;-66
2022/06/08 10:34:12;;;;;;;0.90;0.90;;;25.70;99.90;27.70;96264.00;;;;5022156;28;20218;-65
2022/06/08 10:37:06;;;;;;;1.47;0.90;;;25.90;99.90;27.80;96222.00;;;;5029138;28;20722;-66
2022/06/08 10:39:55;;;;;;;2.87;1.20;;;25.80;97.10;25.90;96232.00;;;;5022069;28;20207;-65
2022/06/08 10:42:46;;;;;;;3.23;0.80;;;25.70;91.40;24.60;96202.00;;;;5028753;28;21165;-65
2022/06/08 10:45:45;;;;;;;2.17;0.80;;;24.80;93.70;25.40;96210.00;;;;5027888;28;20207;-64
2022/06/08 10:48:48;;;;;;;1.27;1.17;;;24.60;96.10;25.70;96228.00;;;;5023425;28;20307;-66
2022/06/08 10:51:41;;;;;;;1.50;1.00;;;24.40;99.10;26.80;96229.00;;;;5029572;28;20206;-66
2022/06/08 10:54:56;;;;;;;3.20;0.80;;;24.40;95.70;26.30;96215.00;;;;5020249;28;20211;-65
2022/06/08 10:57:50;;;;;;;1.43;0.73;;;24.60;92.90;24.50;96223.00;;;;5023163;28;20716;-65
2022/06/08 11:01:05;;;;;;;1.20;1.10;;;24.40;93.30;24.20;96234.00;;;;5017070;28;20597;-66
2022/06/08 11:03:57;;;;;;;1.17;0.67;;;23.80;92.70;24.20;96231.00;;;;5028113;28;20205;-68
2022/06/08 11:07:07;;;;;;;1.87;0.90;;;23.40;94.80;24.00;96239.00;;;;5028915;28;20219;-67
2022/06/08 11:10:10;;;;;;;2.07;1.30;;;23.10;94.80;24.50;96234.00;;;;5042133;23;20239;-81
2022/06/08 11:13:15;;;;;;;2.83;0.90;;;23.00;95.40;24.40;96240.00;;;;5038039;28;20208;-80
2022/06/08 11:16:24;;;;;;;1.07;0.80;;;23.00;95.00;24.40;96235.00;;;;5038357;28;20205;-80
2022/06/08 11:19:18;;;;;;;0.87;0.87;;;22.90;96.20;24.50;96248.00;;;;5036119;28;20235;-80
2022/06/08 11:22:19;;;;;;;2.23;1.00;;;22.90;96.70;24.90;96248.00;;;;5041092;28;20216;-81
2022/06/08 11:25:17;;;;;;;4.00;0.90;;;23.00;98.00;24.80;96256.00;;;;5034758;28;20192;-81
2022/06/08 11:28:33;;;;;;;1.20;1.10;;;23.00;98.50;24.40;96245.00;;;;5031837;28;20213;-81
2022/06/08 11:31:52;;;;;;;1.07;0.90;;;23.00;99.30;24.10;96253.00;;;;5039657;28;20220;-82
2022/06/08 11:35:04;;;;;;;2.10;1.33;;;22.90;96.60;23.70;96249.00;;;;5040534;28;20204;-84
2022/06/08 11:38:07;;;;;;;2.00;0.90;;;22.70;96.50;24.00;96245.00;;;;5035295;28;20201;-83
2022/06/08 11:41:26;;;;;;;1.67;1.07;;;22.50;97.50;24.10;96247.00;;;;5039327;28;20738;-81
2022/06/08 11:44:20;;;;;;;1.37;1.10;;;22.50;98.50;23.50;96244.00;;;;5039035;28;20204;-80
2022/06/08 11:47:19;;;;;;;3.73;1.17;;;22.40;99.90;22.60;96246.00;;;;5036547;28;20209;-80
2022/06/08 11:50:16;;;;;;;2.07;1.40;;;22.10;99.90;22.40;96244.00;;;;5036263;28;20217;-80
2022/06/08 11:53:15;;;;;;;2.60;1.10;;;21.90;99.90;22.20;96240.00;;;;5034851;28;20579;-81
2022/06/08 11:56:15;;;;;;;1.67;1.23;;;21.60;99.90;21.90;96240.00;;;;5036638;28;20197;-80
2022/06/08 11:59:07;;;;;;;1.47;1.20;;;21.30;99.90;22.10;96236.00;;;;5041299;28;20221;-81
2022/06/08 12:02:01;;;;;;;0.93;0.87;;;21.20;99.90;22.00;96231.00;;;;5042582;28;20770;-79
2022/06/08 12:04:56;;;;;;;1.00;1.00;;;21.10;99.90;22.30;96238.00;;;;5042376;28;20194;-80
2022/06/08 12:07:58;;;;;;;2.77;1.20;;;21.00;99.90;22.90;96234.00;;;;5036148;28;20228;-79
2022/06/08 12:10:49;;;;;;;1.63;1.20;;;21.10;99.90;23.10;96230.00;;;;5044230;28;20217;-81
2022/06/08 12:13:52;;;;;;;1.47;1.20;;;21.20;99.90;23.00;96239.00;;;;5037189;28;20201;-88
2022/06/08 12:16:55;;;;;;;2.17;1.60;;;21.30;99.90;23.20;96245.00;;;;5040478;28;20211;-87
2022/06/08 12:19:47;;;;;;;1.63;1.17;;;21.30;99.90;23.10;96232.00;;;;5045527;28;20227;-86
2022/06/08 12:22:39;;;;;;;2.73;1.20;;;21.40;99.90;23.10;96240.00;;;;5046240;28;20194;-86
2022/06/08 12:25:30;;;;;;;12.37;2.40;;;21.40;99.90;23.20;96236.00;;;;5042690;28;20584;-85
2022/06/08 12:28:21;;;;;;;1.90;1.30;;;21.50;99.90;23.20;96238.00;;;;5041729;28;20229;-86
2022/06/08 12:31:28;;;;;;;1.20;1.10;;;21.40;99.90;23.20;96221.00;;;;5043363;28;20205;-85
2022/06/08 12:34:31;;;;;;;1.20;1.10;;;21.50;99.90;23.10;96215.00;;;;5043248;28;20205;-86
2022/06/08 12:37:37;;;;;;;3.37;0.97;;;21.50;99.90;23.20;96219.00;;;;5045816;28;20291;-86
2022/06/08 12:40:34;;;;;;;1.20;1.10;;;21.50;99.90;23.20;96217.00;;;;5043868;28;20224;-86
2022/06/08 12:43:24;;;;;;;1.20;1.10;;;21.50;99.90;23.30;96215.00;;;;5043774;28;20201;-84
2022/06/08 12:46:26;;;;;;;5.77;1.37;;;21.50;99.90;23.40;96204.00;;;;5041129;28;20284;-87
2022/06/08 12:49:20;;;;;;;2.70;1.17;;;21.60;99.90;23.30;96197.00;;;;5035583;28;20232;-86
2022/06/08 12:52:22;;;;;;;1.20;1.10;;;21.60;99.90;23.40;96197.00;;;;5038513;28;20205;-84
2022/06/08 12:55:16;;;;;;;2.70;1.40;;;21.70;99.90;23.60;96197.00;;;;5041454;28;20197;-86
2022/06/08 12:58:05;;;;;;;3.00;1.47;;;21.80;99.90;23.70;96192.00;;;;5041763;28;20197;-85
2022/06/08 13:00:56;;;;;;;3.90;1.20;;;21.80;99.90;23.80;96189.00;;;;5043226;28;20225;-85
2022/06/08 13:03:45;;;;;;;1.63;1.10;;;22.00;99.90;23.80;96192.00;;;;5036315;28;20266;-85
2022/06/08 13:06:34;;;;;;;3.83;2.73;;;22.00;99.90;24.20;96186.00;;;;5038110;28;20213;-85
2022/06/08 13:09:23;;;;;;;1.20;1.10;;;22.20;99.90;24.20;96181.00;;;;5033321;28;20608;-86